sensor_id;sensor_type;location;lat;lon;timestamp;pressure;altitude;pressure_sealevel;temperature;humidity
78825;BME280;68176;45.554;10.220;2023-05-16T00:00:53;99005.50;;;18.59;58.58
78825;BME280;68176;45.554;10.220;2023-05-16T00:03:26;98994.03;;;18.52;58.42
78825;BME280;68176;45.554;10.220;2023-05-16T00:05:53;98994.03;;;18.58;58.47
78825;BME280;68176;45.554;10.220;2023-05-16T00:08:23;98999.97;;;18.60;58.66
78825;BME280;68176;45.554;10.220;2023-05-16T00:10:53;98998.94;;;18.55;58.66
78825;BME280;68176;45.554;10.220;2023-05-16T00:13:23;98982.16;;;18.48;58.83
78825;BME280;68176;45.554;10.220;2023-05-16T00:15:53;98978.88;;;18.46;58.75
78825;BME280;68176;45.554;10.220;2023-05-16T00:18:23;98960.50;;;18.38;58.60
78825;BME280;68176;45.554;10.220;2023-05-16T00:20:53;98985.84;;;18.53;58.51
78825;BME280;68176;45.554;10.220;2023-05-16T00:23:23;98960.50;;;18.44;58.65
78825;BME280;68176;45.554;10.220;2023-05-16T00:25:53;98979.13;;;18.51;58.71
78825;BME280;68176;45.554;10.220;2023-05-16T00:28:23;98984.19;;;18.46;58.50
78825;BME280;68176;45.554;10.220;2023-05-16T00:30:53;98968.28;;;18.46;58.63
78825;BME280;68176;45.554;10.220;2023-05-16T00:33:23;98974.84;;;18.50;58.62
78825;BME280;68176;45.554;10.220;2023-05-16T00:35:53;98973.59;;;18.46;58.73
78825;BME280;68176;45.554;10.220;2023-05-16T00:38:23;98970.28;;;18.44;58.52
78825;BME280;68176;45.554;10.220;2023-05-16T00:40:53;98953.97;;;18.34;58.65
78825;BME280;68176;45.554;10.220;2023-05-16T00:43:23;98942.13;;;18.30;58.50
78825;BME280;68176;45.554;10.220;2023-05-16T00:45:53;98941.72;;;18.33;58.74
78825;BME280;68176;45.554;10.220;2023-05-16T00:48:24;98935.78;;;18.31;58.57
78825;BME280;68176;45.554;10.220;2023-05-16T00:50:53;98969.53;;;18.50;58.83
78825;BME280;68176;45.554;10.220;2023-05-16T00:53:24;98961.72;;;18.42;58.68
78825;BME280;68176;45.554;10.220;2023-05-16T00:55:54;98966.84;;;18.43;58.53
78825;BME280;68176;45.554;10.220;2023-05-16T00:58:24;98939.25;;;18.38;58.79
78825;BME280;68176;45.554;10.220;2023-05-16T01:00:53;98953.56;;;18.43;58.69
78825;BME280;68176;45.554;10.220;2023-05-16T01:03:23;98938.47;;;18.37;58.50
78825;BME280;68176;45.554;10.220;2023-05-16T01:05:54;98938.47;;;18.37;58.64
78825;BME280;68176;45.554;10.220;2023-05-16T01:08:23;98937.41;;;18.32;58.72
78825;BME280;68176;45.554;10.220;2023-05-16T01:16:28;98947.22;;;18.38;58.86
78825;BME280;68176;45.554;10.220;2023-05-16T01:22:01;98946.59;;;18.36;58.67
78825;BME280;68176;45.554;10.220;2023-05-16T01:24:39;98916.81;;;18.21;58.90
78825;BME280;68176;45.554;10.220;2023-05-16T01:27:09;98931.91;;;18.27;58.97
78825;BME280;68176;45.554;10.220;2023-05-16T01:29:36;98925.19;;;18.24;58.67
78825;BME280;68176;45.554;10.220;2023-05-16T01:32:01;98933.16;;;18.31;58.90
78825;BME280;68176;45.554;10.220;2023-05-16T01:34:32;98924.13;;;18.19;58.67
78825;BME280;68176;45.554;10.220;2023-05-16T01:37:15;98908.19;;;18.19;58.80
78825;BME280;68176;45.554;10.220;2023-05-16T01:39:55;98924.53;;;18.29;58.71
78825;BME280;68176;45.554;10.220;2023-05-16T01:42:23;98913.94;;;18.22;58.78
78825;BME280;68176;45.554;10.220;2023-05-16T01:47:30;98861.88;;;18.01;58.89
78825;BME280;68176;45.554;10.220;2023-05-16T01:50:13;98884.53;;;18.10;58.77
78825;BME280;68176;45.554;10.220;2023-05-16T01:55:23;98873.31;;;18.08;59.14
78825;BME280;68176;45.554;10.220;2023-05-16T01:57:54;98897.59;;;18.19;59.19
78825;BME280;68176;45.554;10.220;2023-05-16T02:00:20;98878.00;;;18.06;59.10
78825;BME280;68176;45.554;10.220;2023-05-16T02:02:47;98884.94;;;18.14;58.82
78825;BME280;68176;45.554;10.220;2023-05-16T02:05:17;98875.97;;;18.08;58.83
78825;BME280;68176;45.554;10.220;2023-05-16T02:07:48;98859.22;;;18.01;58.79
78825;BME280;68176;45.554;10.220;2023-05-16T02:10:18;98876.78;;;18.09;58.81
78825;BME280;68176;45.554;10.220;2023-05-16T02:12:49;98873.09;;;18.10;58.89
78825;BME280;68176;45.554;10.220;2023-05-16T02:15:17;98858.00;;;17.97;58.74
78825;BME280;68176;45.554;10.220;2023-05-16T02:17:48;98875.56;;;18.11;58.85
78825;BME280;68176;45.554;10.220;2023-05-16T02:20:17;98866.38;;;18.07;58.90
78825;BME280;68176;45.554;10.220;2023-05-16T02:22:47;98890.66;;;18.18;58.83
78825;BME280;68176;45.554;10.220;2023-05-16T02:25:20;98857.19;;;18.03;58.76
78825;BME280;68176;45.554;10.220;2023-05-16T02:27:50;98855.56;;;18.02;58.64
78825;BME280;68176;45.554;10.220;2023-05-16T02:30:18;98877.81;;;18.15;58.67
78825;BME280;68176;45.554;10.220;2023-05-16T02:32:48;98888.19;;;18.16;58.81
78825;BME280;68176;45.554;10.220;2023-05-16T02:35:18;98845.97;;;18.01;58.75
78825;BME280;68176;45.554;10.220;2023-05-16T02:37:47;98841.66;;;18.00;58.84
78825;BME280;68176;45.554;10.220;2023-05-16T02:40:17;98865.78;;;18.12;58.71
78825;BME280;68176;45.554;10.220;2023-05-16T02:42:48;98827.56;;;17.93;58.92
78825;BME280;68176;45.554;10.220;2023-05-16T02:45:18;98848.81;;;18.00;58.76
78825;BME280;68176;45.554;10.220;2023-05-16T02:47:48;98841.66;;;18.00;58.52
78825;BME280;68176;45.554;10.220;2023-05-16T02:50:18;98851.03;;;18.03;58.63
78825;BME280;68176;45.554;10.220;2023-05-16T02:52:48;98824.53;;;17.96;58.46
78825;BME280;68176;45.554;10.220;2023-05-16T02:55:18;98813.94;;;17.90;58.54
78825;BME280;68176;45.554;10.220;2023-05-16T02:57:47;98842.50;;;18.07;58.50
78825;BME280;68176;45.554;10.220;2023-05-16T03:00:18;98839.00;;;18.00;58.67
78825;BME280;68176;45.554;10.220;2023-05-16T03:02:48;98821.66;;;17.98;58.50
78825;BME280;68176;45.554;10.220;2023-05-16T03:05:18;98806.16;;;17.88;58.22
78825;BME280;68176;45.554;10.220;2023-05-16T03:07:48;98841.25;;;18.03;58.40
78825;BME280;68176;45.554;10.220;2023-05-16T03:10:18;98844.94;;;18.02;58.51
78825;BME280;68176;45.554;10.220;2023-05-16T03:12:48;98816.78;;;17.88;58.76
78825;BME280;68176;45.554;10.220;2023-05-16T03:15:18;98824.13;;;17.99;58.68
78825;BME280;68176;45.554;10.220;2023-05-16T03:17:48;98805.56;;;17.86;58.49
78825;BME280;68176;45.554;10.220;2023-05-16T03:20:18;98804.50;;;17.87;58.60
78825;BME280;68176;45.554;10.220;2023-05-16T03:22:48;98832.69;;;18.01;58.36
78825;BME280;68176;45.554;10.220;2023-05-16T03:25:18;98802.91;;;17.86;58.67
78825;BME280;68176;45.554;10.220;2023-05-16T03:27:48;98820.66;;;17.92;58.64
78825;BME280;68176;45.554;10.220;2023-05-16T03:30:18;98809.41;;;17.90;58.72
78825;BME280;68176;45.554;10.220;2023-05-16T03:32:48;98811.28;;;17.83;58.38
78825;BME280;68176;45.554;10.220;2023-05-16T03:35:18;98798.41;;;17.80;58.59
78825;BME280;68176;45.554;10.220;2023-05-16T03:37:48;98799.84;;;17.83;58.58
78825;BME280;68176;45.554;10.220;2023-05-16T03:40:18;98795.53;;;17.82;58.62
78825;BME280;68176;45.554;10.220;2023-05-16T03:42:48;98798.00;;;17.77;58.39
78825;BME280;68176;45.554;10.220;2023-05-16T03:45:18;98813.50;;;17.86;58.42
78825;BME280;68176;45.554;10.220;2023-05-16T03:47:48;98807.78;;;17.83;58.75
78825;BME280;68176;45.554;10.220;2023-05-16T03:50:18;98794.94;;;17.73;58.57
78825;BME280;68176;45.554;10.220;2023-05-16T03:52:48;98804.94;;;17.84;58.49
78825;BME280;68176;45.554;10.220;2023-05-16T03:55:19;98791.47;;;17.79;58.47
78825;BME280;68176;45.554;10.220;2023-05-16T03:57:48;98783.72;;;17.71;58.72
78825;BME280;68176;45.554;10.220;2023-05-16T04:00:18;98808.63;;;17.83;58.54
78825;BME280;68176;45.554;10.220;2023-05-16T04:02:48;98789.03;;;17.71;58.80
78825;BME280;68176;45.554;10.220;2023-05-16T04:05:18;98793.13;;;17.80;58.45
78825;BME280;68176;45.554;10.220;2023-05-16T04:07:48;98811.47;;;17.88;58.64
78825;BME280;68176;45.554;10.220;2023-05-16T04:10:18;98803.91;;;17.85;58.65
78825;BME280;68176;45.554;10.220;2023-05-16T04:12:48;98814.13;;;17.88;58.74
78825;BME280;68176;45.554;10.220;2023-05-16T04:15:18;98806.56;;;17.85;58.58
78825;BME280;68176;45.554;10.220;2023-05-16T04:17:48;98782.91;;;17.77;58.72
78825;BME280;68176;45.554;10.220;2023-05-16T04:20:18;98800.66;;;17.77;58.62
78825;BME280;68176;45.554;10.220;2023-05-16T04:22:48;98801.25;;;17.79;58.69
78825;BME280;68176;45.554;10.220;2023-05-16T04:25:18;98808.38;;;17.78;58.73
78825;BME280;68176;45.554;10.220;2023-05-16T04:27:48;98801.88;;;17.74;58.50
78825;BME280;68176;45.554;10.220;2023-05-16T04:30:18;98799.22;;;17.81;58.55
78825;BME280;68176;45.554;10.220;2023-05-16T04:32:48;98807.16;;;17.81;58.73
78825;BME280;68176;45.554;10.220;2023-05-16T04:35:18;98788.22;;;17.71;59.07
78825;BME280;68176;45.554;10.220;2023-05-16T04:37:48;98808.22;;;17.80;58.89
78825;BME280;68176;45.554;10.220;2023-05-16T04:40:18;98803.31;;;17.70;58.62
78825;BME280;68176;45.554;10.220;2023-05-16T04:42:48;98799.63;;;17.71;58.40
78825;BME280;68176;45.554;10.220;2023-05-16T04:45:18;98792.69;;;17.70;58.55
78825;BME280;68176;45.554;10.220;2023-05-16T04:47:48;98796.75;;;17.66;58.66
78825;BME280;68176;45.554;10.220;2023-05-16T04:50:18;98821.66;;;17.78;58.71
78825;BME280;68176;45.554;10.220;2023-05-16T04:52:48;98818.41;;;17.76;58.94
78825;BME280;68176;45.554;10.220;2023-05-16T04:55:18;98785.72;;;17.56;58.59
78825;BME280;68176;45.554;10.220;2023-05-16T04:57:48;98784.91;;;17.55;58.67
78825;BME280;68176;45.554;10.220;2023-05-16T05:00:18;98804.13;;;17.64;58.58
78825;BME280;68176;45.554;10.220;2023-05-16T05:02:48;98820.03;;;17.77;58.60
78825;BME280;68176;45.554;10.220;2023-05-16T05:05:18;98806.34;;;17.67;58.51
78825;BME280;68176;45.554;10.220;2023-05-16T05:07:48;98812.69;;;17.73;58.69
78825;BME280;68176;45.554;10.220;2023-05-16T05:10:18;98801.03;;;17.61;58.78
78825;BME280;68176;45.554;10.220;2023-05-16T05:12:48;98811.44;;;17.62;58.75
78825;BME280;68176;45.554;10.220;2023-05-16T05:15:18;98818.41;;;17.76;58.70
78825;BME280;68176;45.554;10.220;2023-05-16T05:17:48;98819.22;;;17.77;58.44
78825;BME280;68176;45.554;10.220;2023-05-16T05:20:18;98780.03;;;17.59;58.83
78825;BME280;68176;45.554;10.220;2023-05-16T05:23:01;98799.00;;;17.69;56.81
78825;BME280;68176;45.554;10.220;2023-05-16T05:25:26;98811.00;;;17.52;55.99
78825;BME280;68176;45.554;10.220;2023-05-16T05:27:55;98790.97;;;17.43;56.52
78825;BME280;68176;45.554;10.220;2023-05-16T05:30:51;98802.06;;;17.59;56.73
78825;BME280;68176;45.554;10.220;2023-05-16T05:33:29;98784.47;;;17.39;57.06
78825;BME280;68176;45.554;10.220;2023-05-16T05:36:04;98781.44;;;17.48;57.22
78825;BME280;68176;45.554;10.220;2023-05-16T05:38:29;98808.00;;;17.62;57.35
78825;BME280;68176;45.554;10.220;2023-05-16T05:41:15;98784.91;;;17.49;57.23
78825;BME280;68176;45.554;10.220;2023-05-16T05:43:40;98778.56;;;17.50;57.46
78825;BME280;68176;45.554;10.220;2023-05-16T05:46:14;98767.34;;;17.48;57.29
78825;BME280;68176;45.554;10.220;2023-05-16T05:48:46;98804.13;;;17.64;57.29
78825;BME280;68176;45.554;10.220;2023-05-16T05:51:12;98799.81;;;17.56;57.38
78825;BME280;68176;45.554;10.220;2023-05-16T05:53:42;98802.47;;;17.56;57.47
78825;BME280;68176;45.554;10.220;2023-05-16T05:56:09;98806.53;;;17.59;57.70
78825;BME280;68176;45.554;10.220;2023-05-16T05:58:39;98819.78;;;17.59;57.82
78825;BME280;68176;45.554;10.220;2023-05-16T06:01:12;98830.22;;;17.67;57.74
78825;BME280;68176;45.554;10.220;2023-05-16T06:03:42;98800.22;;;17.60;57.77
78825;BME280;68176;45.554;10.220;2023-05-16T06:06:12;98770.19;;;17.46;57.79
78825;BME280;68176;45.554;10.220;2023-05-16T06:08:39;98777.16;;;17.54;57.66
78825;BME280;68176;45.554;10.220;2023-05-16T06:11:12;98813.06;;;17.63;57.47
78825;BME280;68176;45.554;10.220;2023-05-16T06:13:39;98797.38;;;17.55;57.52
78825;BME280;68176;45.554;10.220;2023-05-16T06:16:15;98809.84;;;17.68;57.57
78825;BME280;68176;45.554;10.220;2023-05-16T06:18:41;98800.19;;;17.53;57.84
78825;BME280;68176;45.554;10.220;2023-05-16T06:21:09;98831.03;;;17.68;57.70
78825;BME280;68176;45.554;10.220;2023-05-16T06:23:45;98822.44;;;17.59;57.85
78825;BME280;68176;45.554;10.220;2023-05-16T06:26:11;98788.56;;;17.48;57.87
78825;BME280;68176;45.554;10.220;2023-05-16T06:28:39;98829.38;;;17.60;58.06
78825;BME280;68176;45.554;10.220;2023-05-16T06:31:15;98832.88;;;17.67;57.90
78825;BME280;68176;45.554;10.220;2023-05-16T06:33:41;98817.91;;;17.53;58.25
78825;BME280;68176;45.554;10.220;2023-05-16T06:36:09;98822.22;;;17.54;58.02
78825;BME280;68176;45.554;10.220;2023-05-16T06:38:39;98814.66;;;17.51;58.42
78825;BME280;68176;45.554;10.220;2023-05-16T06:41:09;98835.50;;;17.61;58.15
78825;BME280;68176;45.554;10.220;2023-05-16T06:43:40;98833.41;;;17.49;58.25
78825;BME280;68176;45.554;10.220;2023-05-16T06:46:09;98857.56;;;17.61;58.29
78825;BME280;68176;45.554;10.220;2023-05-16T06:48:39;98846.06;;;17.54;58.23
78825;BME280;68176;45.554;10.220;2023-05-16T06:51:12;98862.84;;;17.61;58.23
78825;BME280;68176;45.554;10.220;2023-05-16T06:53:39;98880.19;;;17.70;58.22
78825;BME280;68176;45.554;10.220;2023-05-16T06:56:09;98880.19;;;17.70;58.34
78825;BME280;68176;45.554;10.220;2023-05-16T06:58:39;98864.06;;;17.65;58.57
78825;BME280;68176;45.554;10.220;2023-05-16T07:01:09;98822.22;;;17.54;58.30
78825;BME280;68176;45.554;10.220;2023-05-16T07:03:39;98867.75;;;17.64;58.45
78825;BME280;68176;45.554;10.220;2023-05-16T07:06:09;98857.94;;;17.58;58.28
78825;BME280;68176;45.554;10.220;2023-05-16T07:08:42;98869.59;;;17.70;58.40
78825;BME280;68176;45.554;10.220;2023-05-16T07:11:09;98862.84;;;17.61;58.37
78825;BME280;68176;45.554;10.220;2023-05-16T07:13:39;98877.72;;;17.62;58.62
78825;BME280;68176;45.554;10.220;2023-05-16T07:16:09;98873.25;;;17.63;58.33
78825;BME280;68176;45.554;10.220;2023-05-16T07:18:40;98865.69;;;17.66;58.47
78825;BME280;68176;45.554;10.220;2023-05-16T07:21:10;98857.16;;;17.64;58.33
78825;BME280;68176;45.554;10.220;2023-05-16T07:23:58;98873.47;;;17.61;58.42
78825;BME280;68176;45.554;10.220;2023-05-16T07:26:23;98877.13;;;17.67;58.48
78825;BME280;68176;45.554;10.220;2023-05-16T07:28:49;98884.09;;;17.68;58.51
78825;BME280;68176;45.554;10.220;2023-05-16T07:31:24;98877.94;;;17.61;58.24
78825;BME280;68176;45.554;10.220;2023-05-16T07:33:49;98871.41;;;17.63;58.61
78825;BME280;68176;45.554;10.220;2023-05-16T07:36:18;98863.66;;;17.55;58.63
78825;BME280;68176;45.554;10.220;2023-05-16T07:38:47;98861.59;;;17.57;58.45
78825;BME280;68176;45.554;10.220;2023-05-16T07:41:17;98863.66;;;17.55;58.70
78825;BME280;68176;45.554;10.220;2023-05-16T07:43:48;98862.84;;;17.61;58.68
78825;BME280;68176;45.554;10.220;2023-05-16T07:46:17;98851.81;;;17.57;58.67
78825;BME280;68176;45.554;10.220;2023-05-16T07:48:47;98866.53;;;17.67;58.74
78825;BME280;68176;45.554;10.220;2023-05-16T07:51:17;98860.41;;;17.66;58.79
78825;BME280;68176;45.554;10.220;2023-05-16T07:53:48;98847.75;;;17.62;58.87
78825;BME280;68176;45.554;10.220;2023-05-16T07:56:18;98862.22;;;17.66;58.86
78825;BME280;68176;45.554;10.220;2023-05-16T07:58:47;98866.91;;;17.57;58.83
78825;BME280;68176;45.554;10.220;2023-05-16T08:01:18;98879.97;;;17.65;58.54
78825;BME280;68176;45.554;10.220;2023-05-16T08:03:50;98865.50;;;17.61;58.90
78825;BME280;68176;45.554;10.220;2023-05-16T08:06:18;98866.72;;;17.58;58.91
78825;BME280;68176;45.554;10.220;2023-05-16T08:08:48;98853.06;;;17.55;58.80
78825;BME280;68176;45.554;10.220;2023-05-16T08:11:18;98843.59;;;17.52;58.83
78825;BME280;68176;45.554;10.220;2023-05-16T08:13:48;98872.84;;;17.66;58.88
78825;BME280;68176;45.554;10.220;2023-05-16T08:16:18;98822.78;;;17.43;58.55
78825;BME280;68176;45.554;10.220;2023-05-16T08:18:48;98845.47;;;17.52;58.94
78825;BME280;68176;45.554;10.220;2023-05-16T08:21:28;98828.50;;;17.46;58.73
78825;BME280;68176;45.554;10.220;2023-05-16T08:23:57;98838.31;;;17.46;58.72
78825;BME280;68176;45.554;10.220;2023-05-16T08:26:22;98877.53;;;17.64;58.84
78825;BME280;68176;45.554;10.220;2023-05-16T08:28:48;98852.78;;;17.50;58.90
78825;BME280;68176;45.554;10.220;2023-05-16T08:31:18;98852.19;;;17.54;58.95
78825;BME280;68176;45.554;10.220;2023-05-16T08:33:48;98851.38;;;17.54;58.77
78825;BME280;68176;45.554;10.220;2023-05-16T08:36:21;98859.34;;;17.54;58.70
78825;BME280;68176;45.554;10.220;2023-05-16T08:38:49;98849.13;;;17.51;58.82
78825;BME280;68176;45.554;10.220;2023-05-16T08:41:18;98848.31;;;17.50;58.97
78825;BME280;68176;45.554;10.220;2023-05-16T08:43:48;98859.56;;;17.59;58.89
78825;BME280;68176;45.554;10.220;2023-05-16T08:46:23;98872.22;;;17.64;58.79
78825;BME280;68176;45.554;10.220;2023-05-16T08:48:52;98855.63;;;17.42;58.80
78825;BME280;68176;45.554;10.220;2023-05-16T08:51:20;98896.28;;;17.62;59.07
78825;BME280;68176;45.554;10.220;2023-05-16T08:54:00;98875.41;;;17.52;58.71
78825;BME280;68176;45.554;10.220;2023-05-16T08:56:27;98899.97;;;17.61;59.00
78825;BME280;68176;45.554;10.220;2023-05-16T08:58:54;98875.81;;;17.43;59.04
78825;BME280;68176;45.554;10.220;2023-05-16T09:01:22;98901.56;;;17.55;58.95
78825;BME280;68176;45.554;10.220;2023-05-16T09:03:51;98905.88;;;17.63;58.97
78825;BME280;68176;45.554;10.220;2023-05-16T09:06:21;98904.41;;;17.54;58.99
78825;BME280;68176;45.554;10.220;2023-05-16T09:08:52;98896.25;;;17.55;59.00
78825;BME280;68176;45.554;10.220;2023-05-16T09:11:21;98905.22;;;17.54;59.05
78825;BME280;68176;45.554;10.220;2023-05-16T09:13:51;98891.94;;;17.48;58.83
78825;BME280;68176;45.554;10.220;2023-05-16T09:16:21;98885.63;;;17.49;59.03
78825;BME280;68176;45.554;10.220;2023-05-16T09:18:58;98872.53;;;17.41;59.03
78825;BME280;68176;45.554;10.220;2023-05-16T09:21:32;98905.69;;;17.58;59.11
78825;BME280;68176;45.554;10.220;2023-05-16T09:24:08;98896.63;;;17.46;59.25
78825;BME280;68176;45.554;10.220;2023-05-16T09:26:36;98908.03;;;17.46;58.82
78825;BME280;68176;45.554;10.220;2023-05-16T09:29:09;98935.84;;;17.57;58.97
78825;BME280;68176;45.554;10.220;2023-05-16T09:31:36;98941.16;;;17.57;59.04
78825;BME280;68176;45.554;10.220;2023-05-16T09:34:11;98925.78;;;17.52;59.01
78825;BME280;68176;45.554;10.220;2023-05-16T09:36:37;98945.22;;;17.59;59.11
78825;BME280;68176;45.554;10.220;2023-05-16T09:39:05;98925.00;;;17.52;59.35
78825;BME280;68176;45.554;10.220;2023-05-16T09:41:34;98928.06;;;17.55;58.98
78825;BME280;68176;45.554;10.220;2023-05-16T09:44:04;98923.97;;;17.53;59.00
78825;BME280;68176;45.554;10.220;2023-05-16T09:46:34;98919.47;;;17.47;59.09
78825;BME280;68176;45.554;10.220;2023-05-16T09:49:01;98927.66;;;17.52;59.31
78825;BME280;68176;45.554;10.220;2023-05-16T09:51:31;98922.59;;;17.57;59.37
78825;BME280;68176;45.554;10.220;2023-05-16T09:54:01;98923.59;;;17.56;59.32
78825;BME280;68176;45.554;10.220;2023-05-16T09:56:31;98928.91;;;17.56;59.31
78825;BME280;68176;45.554;10.220;2023-05-16T09:59:01;98924.63;;;17.55;59.15
78825;BME280;68176;45.554;10.220;2023-05-16T10:01:34;98895.41;;;17.42;59.37
78825;BME280;68176;45.554;10.220;2023-05-16T10:04:01;98921.97;;;17.55;59.35
78825;BME280;68176;45.554;10.220;2023-05-16T10:06:31;98909.88;;;17.46;59.37
78825;BME280;68176;45.554;10.220;2023-05-16T10:09:01;98911.91;;;17.44;59.15
78825;BME280;68176;45.554;10.220;2023-05-16T10:11:31;98921.72;;;17.50;59.30
78825;BME280;68176;45.554;10.220;2023-05-16T10:14:01;98910.16;;;17.57;59.28
78825;BME280;68176;45.554;10.220;2023-05-16T10:16:31;98905.59;;;17.45;59.37
78825;BME280;68176;45.554;10.220;2023-05-16T10:19:02;98896.00;;;17.44;59.28
78825;BME280;68176;45.554;10.220;2023-05-16T10:21:31;98917.47;;;17.55;59.48
78825;BME280;68176;45.554;10.220;2023-05-16T10:24:02;98892.56;;;17.50;59.15
78825;BME280;68176;45.554;10.220;2023-05-16T10:26:32;98897.44;;;17.53;59.19
78825;BME280;68176;45.554;10.220;2023-05-16T10:29:01;98881.53;;;17.46;59.09
78825;BME280;68176;45.554;10.220;2023-05-16T10:31:31;98889.91;;;17.50;59.14
78825;BME280;68176;45.554;10.220;2023-05-16T10:34:01;98891.94;;;17.48;59.15
78825;BME280;68176;45.554;10.220;2023-05-16T10:36:31;98904.41;;;17.54;59.05
78825;BME280;68176;45.554;10.220;2023-05-16T10:39:02;98872.16;;;17.44;59.10
78825;BME280;68176;45.554;10.220;2023-05-16T10:41:32;98886.81;;;17.46;59.03
78825;BME280;68176;45.554;10.220;2023-05-16T10:44:01;98889.91;;;17.50;59.00
78825;BME280;68176;45.554;10.220;2023-05-16T10:46:31;98908.75;;;17.62;59.04
78825;BME280;68176;45.554;10.220;2023-05-16T10:49:18;98889.28;;;17.48;58.98
78825;BME280;68176;45.554;10.220;2023-05-16T10:51:44;98902.75;;;17.53;59.14
78825;BME280;68176;45.554;10.220;2023-05-16T10:54:10;98902.34;;;17.49;59.19
78825;BME280;68176;45.554;10.220;2023-05-16T10:56:39;98892.16;;;17.53;59.17
78825;BME280;68176;45.554;10.220;2023-05-16T10:59:24;98895.84;;;17.52;59.10
78825;BME280;68176;45.554;10.220;2023-05-16T11:01:52;98909.53;;;17.62;59.22
78825;BME280;68176;45.554;10.220;2023-05-16T11:04:18;98884.88;;;17.55;59.16
78825;BME280;68176;45.554;10.220;2023-05-16T11:06:49;98876.25;;;17.53;59.00
78825;BME280;68176;45.554;10.220;2023-05-16T11:17:12;98850.13;;;17.50;59.06
78825;BME280;68176;45.554;10.220;2023-05-16T11:19:54;98861.59;;;17.57;59.29
78825;BME280;68176;45.554;10.220;2023-05-16T11:22:29;98871.41;;;17.63;59.18
78825;BME280;68176;45.554;10.220;2023-05-16T11:27:25;98860.75;;;17.50;59.08
78825;BME280;68176;45.554;10.220;2023-05-16T11:29:53;98875.06;;;17.55;59.13
78825;BME280;68176;45.554;10.220;2023-05-16T11:32:20;98874.66;;;17.65;58.91
78825;BME280;68176;45.554;10.220;2023-05-16T11:34:50;98859.50;;;17.52;58.87
78825;BME280;68176;45.554;10.220;2023-05-16T11:37:19;98866.09;;;17.63;59.02
78825;BME280;68176;45.554;10.220;2023-05-16T11:39:49;98863.84;;;17.60;59.16
78825;BME280;68176;45.554;10.220;2023-05-16T11:42:19;98834.03;;;17.45;58.98
78825;BME280;68176;45.554;10.220;2023-05-16T11:44:49;98859.16;;;17.62;59.04
78825;BME280;68176;45.554;10.220;2023-05-16T11:47:19;98848.13;;;17.52;58.99
78825;BME280;68176;45.554;10.220;2023-05-16T11:49:49;98857.50;;;17.54;58.94
78825;BME280;68176;45.554;10.220;2023-05-16T11:52:19;98879.75;;;17.60;58.89
78825;BME280;68176;45.554;10.220;2023-05-16T11:54:49;98879.56;;;17.55;58.98
78825;BME280;68176;45.554;10.220;2023-05-16T11:57:20;98883.66;;;17.64;59.22
78825;BME280;68176;45.554;10.220;2023-05-16T11:59:49;98878.13;;;17.59;59.05
78825;BME280;68176;45.554;10.220;2023-05-16T12:02:19;98898.53;;;17.65;59.12
78825;BME280;68176;45.554;10.220;2023-05-16T12:04:49;98865.28;;;17.56;59.21
78825;BME280;68176;45.554;10.220;2023-05-16T12:07:19;98869.97;;;17.61;59.24
78825;BME280;68176;45.554;10.220;2023-05-16T12:09:52;98864.28;;;17.64;58.98
78825;BME280;68176;45.554;10.220;2023-05-16T12:12:20;98871.44;;;17.70;58.95
78825;BME280;68176;45.554;10.220;2023-05-16T12:14:49;98853.88;;;17.69;58.79
78825;BME280;68176;45.554;10.220;2023-05-16T12:17:19;98842.03;;;17.58;59.00
78825;BME280;68176;45.554;10.220;2023-05-16T12:19:49;98840.41;;;17.57;58.99
78825;BME280;68176;45.554;10.220;2023-05-16T12:22:19;98845.72;;;17.64;58.75
78825;BME280;68176;45.554;10.220;2023-05-16T12:24:49;98854.09;;;17.67;58.75
78825;BME280;68176;45.554;10.220;2023-05-16T12:27:23;98861.25;;;17.73;58.94
78825;BME280;68176;45.554;10.220;2023-05-16T12:29:49;98854.69;;;17.69;58.60
78825;BME280;68176;45.554;10.220;2023-05-16T12:32:19;98858.19;;;17.76;58.65
78825;BME280;68176;45.554;10.220;2023-05-16T12:34:50;98832.25;;;17.65;58.70
78825;BME280;68176;45.554;10.220;2023-05-16T12:37:20;98826.13;;;17.58;58.67
78825;BME280;68176;45.554;10.220;2023-05-16T12:39:49;98853.06;;;17.81;58.68
78825;BME280;68176;45.554;10.220;2023-05-16T12:42:19;98831.84;;;17.75;58.44
78825;BME280;68176;45.554;10.220;2023-05-16T12:44:54;98838.59;;;17.77;58.64
78825;BME280;68176;45.554;10.220;2023-05-16T12:47:19;98842.88;;;17.85;58.51
78825;BME280;68176;45.554;10.220;2023-05-16T12:49:49;98824.09;;;17.73;58.78
78825;BME280;68176;45.554;10.220;2023-05-16T12:52:20;98834.31;;;17.76;58.59
78825;BME280;68176;45.554;10.220;2023-05-16T12:54:49;98846.97;;;17.87;58.52
78825;BME280;68176;45.554;10.220;2023-05-16T12:57:19;98843.28;;;17.88;58.39
78825;BME280;68176;45.554;10.220;2023-05-16T12:59:49;98834.50;;;17.81;58.56
78825;BME280;68176;45.554;10.220;2023-05-16T13:02:19;98826.97;;;17.78;58.64
78825;BME280;68176;45.554;10.220;2023-05-16T13:04:49;98830.25;;;17.80;58.34
78825;BME280;68176;45.554;10.220;2023-05-16T13:07:19;98839.63;;;17.89;58.12
78825;BME280;68176;45.554;10.220;2023-05-16T13:09:49;98833.50;;;17.82;58.65
78825;BME280;68176;45.554;10.220;2023-05-16T13:12:19;98849.19;;;17.90;58.22
78825;BME280;68176;45.554;10.220;2023-05-16T13:14:49;98804.94;;;17.71;58.68
78825;BME280;68176;45.554;10.220;2023-05-16T13:17:19;98842.06;;;17.91;58.43
78825;BME280;68176;45.554;10.220;2023-05-16T13:19:49;98832.69;;;17.88;58.60
78825;BME280;68176;45.554;10.220;2023-05-16T13:22:19;98818.41;;;17.76;58.60
78825;BME280;68176;45.554;10.220;2023-05-16T13:24:49;98834.50;;;17.81;59.97
78825;BME280;68176;45.554;10.220;2023-05-16T13:27:19;98838.81;;;17.89;62.42
78825;BME280;68176;45.554;10.220;2023-05-16T13:29:49;98843.50;;;17.80;67.16